sensor_id;sensor_type;location;lat;lon;timestamp;pressure;altitude;pressure_sealevel;temperature
38249;BMP280;24045;51.138;17.126;2023-05-23T00:02:43;100074.77;;;13.53
38249;BMP280;24045;51.138;17.126;2023-05-23T00:17:46;100064.15;;;13.21
38249;BMP280;24045;51.138;17.126;2023-05-23T00:32:49;100057.88;;;12.86
38249;BMP280;24045;51.138;17.126;2023-05-23T00:47:56;100053.30;;;12.69
38249;BMP280;24045;51.138;17.126;2023-05-23T01:03:00;100040.87;;;12.56
38249;BMP280;24045;51.138;17.126;2023-05-23T01:18:11;100035.17;;;12.51
38249;BMP280;24045;51.138;17.126;2023-05-23T01:33:16;100028.61;;;12.31
38249;BMP280;24045;51.138;17.126;2023-05-23T01:48:20;100029.44;;;12.09
38249;BMP280;24045;51.138;17.126;2023-05-23T02:03:23;100016.30;;;11.89
38249;BMP280;24045;51.138;17.126;2023-05-23T02:18:26;100007.52;;;11.79
38249;BMP280;24045;51.138;17.126;2023-05-23T02:33:30;99989.94;;;11.57
38249;BMP280;24045;51.138;17.126;2023-05-23T02:48:34;99978.50;;;11.33
38249;BMP280;24045;51.138;17.126;2023-05-23T03:03:37;99974.80;;;10.99
38249;BMP280;24045;51.138;17.126;2023-05-23T03:18:39;99970.58;;;10.82
38249;BMP280;24045;51.138;17.126;2023-05-23T03:33:45;99958.15;;;10.86
38249;BMP280;24045;51.138;17.126;2023-05-23T03:48:48;99948.10;;;12.34
38249;BMP280;24045;51.138;17.126;2023-05-23T04:03:51;99942.55;;;13.82
38249;BMP280;24045;51.138;17.126;2023-05-23T04:18:54;99941.36;;;14.30
38249;BMP280;24045;51.138;17.126;2023-05-23T04:34:00;99935.16;;;16.04
38249;BMP280;24045;51.138;17.126;2023-05-23T04:49:04;99920.84;;;15.84
38249;BMP280;24045;51.138;17.126;2023-05-23T05:04:07;99918.84;;;17.21
38249;BMP280;24045;51.138;17.126;2023-05-23T05:19:10;99905.35;;;18.06
38249;BMP280;24045;51.138;17.126;2023-05-23T05:34:13;99888.20;;;20.56
38249;BMP280;24045;51.138;17.126;2023-05-23T05:49:18;99894.68;;;21.53
38249;BMP280;24045;51.138;17.126;2023-05-23T06:04:21;99893.34;;;21.44
38249;BMP280;24045;51.138;17.126;2023-05-23T06:19:24;99882.06;;;22.18
38249;BMP280;24045;51.138;17.126;2023-05-23T06:34:27;99881.46;;;23.24
38249;BMP280;24045;51.138;17.126;2023-05-23T06:49:30;99874.34;;;24.63
38249;BMP280;24045;51.138;17.126;2023-05-23T07:04:32;99872.48;;;24.11
38249;BMP280;24045;51.138;17.126;2023-05-23T07:19:36;99868.05;;;25.63
38249;BMP280;24045;51.138;17.126;2023-05-23T07:34:39;99851.38;;;25.31
38249;BMP280;24045;51.138;17.126;2023-05-23T07:49:42;99832.61;;;26.25
38249;BMP280;24045;51.138;17.126;2023-05-23T08:04:47;99822.48;;;26.92
38249;BMP280;24045;51.138;17.126;2023-05-23T08:19:50;99810.05;;;25.70
38249;BMP280;24045;51.138;17.126;2023-05-23T08:34:53;99822.84;;;24.85
38249;BMP280;24045;51.138;17.126;2023-05-23T08:49:56;99837.94;;;24.52
38249;BMP280;24045;51.138;17.126;2023-05-23T09:05:01;99841.55;;;24.87
38249;BMP280;24045;51.138;17.126;2023-05-23T09:20:13;99852.09;;;24.58
38249;BMP280;24045;51.138;17.126;2023-05-23T09:35:21;99852.88;;;24.10
38249;BMP280;24045;51.138;17.126;2023-05-23T09:50:30;99864.09;;;23.26
38249;BMP280;24045;51.138;17.126;2023-05-23T10:05:39;99868.36;;;22.35
38249;BMP280;24045;51.138;17.126;2023-05-23T10:20:48;99875.68;;;21.43
38249;BMP280;24045;51.138;17.126;2023-05-23T10:51:04;99881.10;;;19.94
38249;BMP280;24045;51.138;17.126;2023-05-23T11:21:29;99875.60;;;21.04
38249;BMP280;24045;51.138;17.126;2023-05-23T11:36:34;99867.17;;;21.70
38249;BMP280;24045;51.138;17.126;2023-05-23T11:51:37;99854.04;;;21.49
38249;BMP280;24045;51.138;17.126;2023-05-23T12:06:41;99848.05;;;22.52
38249;BMP280;24045;51.138;17.126;2023-05-23T12:21:48;99845.47;;;23.61
38249;BMP280;24045;51.138;17.126;2023-05-23T12:36:55;99854.70;;;23.87
38249;BMP280;24045;51.138;17.126;2023-05-23T12:52:18;99848.25;;;23.35
38249;BMP280;24045;51.138;17.126;2023-05-23T13:07:22;99850.59;;;23.21
38249;BMP280;24045;51.138;17.126;2023-05-23T13:22:25;99834.09;;;22.91
38249;BMP280;24045;51.138;17.126;2023-05-23T13:37:28;99822.18;;;23.09
38249;BMP280;24045;51.138;17.126;2023-05-23T13:52:30;99802.56;;;23.91
38249;BMP280;24045;51.138;17.126;2023-05-23T14:07:33;99808.38;;;23.77
38249;BMP280;24045;51.138;17.126;2023-05-23T14:22:36;99810.78;;;23.27
38249;BMP280;24045;51.138;17.126;2023-05-23T14:37:39;99823.66;;;23.16
38249;BMP280;24045;51.138;17.126;2023-05-23T14:52:42;99825.46;;;23.55
38249;BMP280;24045;51.138;17.126;2023-05-23T15:07:45;99822.08;;;23.88
38249;BMP280;24045;51.138;17.126;2023-05-23T15:22:48;99814.96;;;23.71
38249;BMP280;24045;51.138;17.126;2023-05-23T15:37:51;99816.55;;;23.63
38249;BMP280;24045;51.138;17.126;2023-05-23T15:52:54;99812.52;;;23.78
38249;BMP280;24045;51.138;17.126;2023-05-23T16:07:56;99802.45;;;23.41
38249;BMP280;24045;51.138;17.126;2023-05-23T16:22:59;99802.55;;;22.95
38249;BMP280;24045;51.138;17.126;2023-05-23T16:38:02;99787.77;;;22.54
38249;BMP280;24045;51.138;17.126;2023-05-23T16:53:05;99787.38;;;21.97
38249;BMP280;24045;51.138;17.126;2023-05-23T17:08:08;99795.03;;;21.60
38249;BMP280;24045;51.138;17.126;2023-05-23T17:23:11;99802.93;;;21.66
38249;BMP280;24045;51.138;17.126;2023-05-23T17:38:15;99824.23;;;21.61
38249;BMP280;24045;51.138;17.126;2023-05-23T17:53:18;99830.14;;;21.23
38249;BMP280;24045;51.138;17.126;2023-05-23T18:08:21;99846.46;;;20.77
38249;BMP280;24045;51.138;17.126;2023-05-23T18:23:24;99856.16;;;20.21
38249;BMP280;24045;51.138;17.126;2023-05-23T18:38:34;99906.63;;;19.18
38249;BMP280;24045;51.138;17.126;2023-05-23T18:53:37;99914.44;;;19.08
38249;BMP280;24045;51.138;17.126;2023-05-23T19:08:44;99931.77;;;18.67
38249;BMP280;24045;51.138;17.126;2023-05-23T19:23:47;99943.73;;;18.26
38249;BMP280;24045;51.138;17.126;2023-05-23T19:38:50;99953.60;;;17.95
38249;BMP280;24045;51.138;17.126;2023-05-23T19:53:53;99965.90;;;17.77
38249;BMP280;24045;51.138;17.126;2023-05-23T20:08:56;99968.94;;;17.47
38249;BMP280;24045;51.138;17.126;2023-05-23T20:23:59;99980.42;;;17.12
38249;BMP280;24045;51.138;17.126;2023-05-23T20:39:02;99997.45;;;16.97
38249;BMP280;24045;51.138;17.126;2023-05-23T20:54:05;100008.02;;;16.86
38249;BMP280;24045;51.138;17.126;2023-05-23T21:09:08;100022.42;;;16.76
38249;BMP280;24045;51.138;17.126;2023-05-23T21:24:11;100034.84;;;16.68
38249;BMP280;24045;51.138;17.126;2023-05-23T21:39:15;100040.81;;;16.54
38249;BMP280;24045;51.138;17.126;2023-05-23T21:54:18;100050.94;;;16.34
38249;BMP280;24045;51.138;17.126;2023-05-23T22:09:21;100052.84;;;16.16
38249;BMP280;24045;51.138;17.126;2023-05-23T22:24:24;100062.57;;;15.93
38249;BMP280;24045;51.138;17.126;2023-05-23T22:39:27;100086.52;;;15.70
38249;BMP280;24045;51.138;17.126;2023-05-23T22:54:30;100088.61;;;15.76
38249;BMP280;24045;51.138;17.126;2023-05-23T23:09:33;100086.27;;;15.91
38249;BMP280;24045;51.138;17.126;2023-05-23T23:24:36;100082.88;;;16.04
38249;BMP280;24045;51.138;17.126;2023-05-23T23:39:39;100090.17;;;16.16
38249;BMP280;24045;51.138;17.126;2023-05-23T23:54:41;100088.50;;;16.18
